sensor_id;sensor_type;location;lat;lon;timestamp;temperature;humidity
18998;DHT22;9632;51.018;4.284;2022-10-16T00:00:36;15.60;99.90
18998;DHT22;9632;51.018;4.284;2022-10-16T00:03:03;15.60;99.90
18998;DHT22;9632;51.018;4.284;2022-10-16T00:05:29;15.70;99.90
18998;DHT22;9632;51.018;4.284;2022-10-16T00:07:55;15.70;99.90
18998;DHT22;9632;51.018;4.284;2022-10-16T00:10:21;15.70;99.90
18998;DHT22;9632;51.018;4.284;2022-10-16T00:12:47;15.70;99.90
18998;DHT22;9632;51.018;4.284;2022-10-16T00:15:13;15.60;99.90
18998;DHT22;9632;51.018;4.284;2022-10-16T00:17:38;15.60;99.90
18998;DHT22;9632;51.018;4.284;2022-10-16T00:20:05;15.60;99.90
18998;DHT22;9632;51.018;4.284;2022-10-16T00:22:30;15.70;99.90
18998;DHT22;9632;51.018;4.284;2022-10-16T00:24:56;15.70;99.90
18998;DHT22;9632;51.018;4.284;2022-10-16T00:27:22;15.70;99.90
18998;DHT22;9632;51.018;4.284;2022-10-16T00:29:51;15.70;99.90
18998;DHT22;9632;51.018;4.284;2022-10-16T00:32:18;15.60;99.90
18998;DHT22;9632;51.018;4.284;2022-10-16T00:34:44;15.60;99.90
18998;DHT22;9632;51.018;4.284;2022-10-16T00:37:10;15.60;99.90
18998;DHT22;9632;51.018;4.284;2022-10-16T00:39:36;15.50;99.90
18998;DHT22;9632;51.018;4.284;2022-10-16T00:42:02;15.40;99.90
18998;DHT22;9632;51.018;4.284;2022-10-16T00:47:33;15.50;99.90
18998;DHT22;9632;51.018;4.284;2022-10-16T00:50:09;15.50;99.90
18998;DHT22;9632;51.018;4.284;2022-10-16T00:52:35;15.60;99.90
18998;DHT22;9632;51.018;4.284;2022-10-16T00:55:03;15.60;99.90
18998;DHT22;9632;51.018;4.284;2022-10-16T00:57:29;15.60;99.90
18998;DHT22;9632;51.018;4.284;2022-10-16T00:59:56;15.60;99.90
18998;DHT22;9632;51.018;4.284;2022-10-16T01:02:22;15.50;99.90
18998;DHT22;9632;51.018;4.284;2022-10-16T01:04:50;15.50;99.90
18998;DHT22;9632;51.018;4.284;2022-10-16T01:13:04;15.30;99.90
18998;DHT22;9632;51.018;4.284;2022-10-16T01:15:34;15.30;99.90
18998;DHT22;9632;51.018;4.284;2022-10-16T01:18:23;15.40;99.90
18998;DHT22;9632;51.018;4.284;2022-10-16T01:21:27;15.30;99.90
18998;DHT22;9632;51.018;4.284;2022-10-16T01:24:22;15.30;99.90
18998;DHT22;9632;51.018;4.284;2022-10-16T01:27:14;15.30;99.90
18998;DHT22;9632;51.018;4.284;2022-10-16T01:32:38;15.30;99.90
18998;DHT22;9632;51.018;4.284;2022-10-16T01:35:14;15.30;99.90
18998;DHT22;9632;51.018;4.284;2022-10-16T01:40:36;15.40;99.90
18998;DHT22;9632;51.018;4.284;2022-10-16T01:43:14;15.40;99.90
18998;DHT22;9632;51.018;4.284;2022-10-16T01:45:41;15.40;99.90
18998;DHT22;9632;51.018;4.284;2022-10-16T01:48:12;15.40;99.90
18998;DHT22;9632;51.018;4.284;2022-10-16T01:50:41;15.40;99.90
18998;DHT22;9632;51.018;4.284;2022-10-16T01:53:10;15.40;99.90
18998;DHT22;9632;51.018;4.284;2022-10-16T01:55:40;15.40;99.90
18998;DHT22;9632;51.018;4.284;2022-10-16T01:58:10;15.30;99.90
18998;DHT22;9632;51.018;4.284;2022-10-16T02:00:38;15.30;99.90
18998;DHT22;9632;51.018;4.284;2022-10-16T02:03:05;15.30;99.90
18998;DHT22;9632;51.018;4.284;2022-10-16T02:08:03;15.20;99.90
18998;DHT22;9632;51.018;4.284;2022-10-16T02:10:29;15.30;99.90
18998;DHT22;9632;51.018;4.284;2022-10-16T02:15:31;15.40;99.90
18998;DHT22;9632;51.018;4.284;2022-10-16T02:17:56;15.40;99.90
18998;DHT22;9632;51.018;4.284;2022-10-16T02:20:27;15.30;99.90
18998;DHT22;9632;51.018;4.284;2022-10-16T02:22:56;15.40;99.90
18998;DHT22;9632;51.018;4.284;2022-10-16T02:25:38;15.50;99.90
18998;DHT22;9632;51.018;4.284;2022-10-16T02:28:27;15.30;99.90
18998;DHT22;9632;51.018;4.284;2022-10-16T02:30:58;15.30;99.90
18998;DHT22;9632;51.018;4.284;2022-10-16T02:33:25;15.30;99.90
18998;DHT22;9632;51.018;4.284;2022-10-16T02:35:53;15.30;99.90
18998;DHT22;9632;51.018;4.284;2022-10-16T02:38:20;15.20;99.90
18998;DHT22;9632;51.018;4.284;2022-10-16T02:40:46;15.20;99.90
18998;DHT22;9632;51.018;4.284;2022-10-16T02:43:12;15.20;99.90
18998;DHT22;9632;51.018;4.284;2022-10-16T02:45:38;15.20;99.90
18998;DHT22;9632;51.018;4.284;2022-10-16T02:48:05;15.20;99.90
18998;DHT22;9632;51.018;4.284;2022-10-16T02:50:30;15.20;99.90
18998;DHT22;9632;51.018;4.284;2022-10-16T02:52:56;15.20;99.90
18998;DHT22;9632;51.018;4.284;2022-10-16T02:55:22;15.20;99.90
18998;DHT22;9632;51.018;4.284;2022-10-16T02:57:47;15.10;99.90
18998;DHT22;9632;51.018;4.284;2022-10-16T03:00:15;15.10;99.90
18998;DHT22;9632;51.018;4.284;2022-10-16T03:02:41;15.10;99.90
18998;DHT22;9632;51.018;4.284;2022-10-16T03:05:08;15.20;99.90
18998;DHT22;9632;51.018;4.284;2022-10-16T03:07:34;15.20;99.90
18998;DHT22;9632;51.018;4.284;2022-10-16T03:09:59;15.20;99.90
18998;DHT22;9632;51.018;4.284;2022-10-16T03:12:26;15.20;99.90
18998;DHT22;9632;51.018;4.284;2022-10-16T03:14:52;15.20;99.90
18998;DHT22;9632;51.018;4.284;2022-10-16T03:17:18;15.10;99.90
18998;DHT22;9632;51.018;4.284;2022-10-16T03:19:44;15.10;99.90
18998;DHT22;9632;51.018;4.284;2022-10-16T03:22:09;15.10;99.90
18998;DHT22;9632;51.018;4.284;2022-10-16T03:24:35;15.10;99.90
18998;DHT22;9632;51.018;4.284;2022-10-16T03:27:00;15.10;99.90
18998;DHT22;9632;51.018;4.284;2022-10-16T03:29:26;15.20;99.90
18998;DHT22;9632;51.018;4.284;2022-10-16T03:31:53;15.20;99.90
18998;DHT22;9632;51.018;4.284;2022-10-16T03:34:18;15.30;99.90
18998;DHT22;9632;51.018;4.284;2022-10-16T03:36:44;15.30;99.90
18998;DHT22;9632;51.018;4.284;2022-10-16T03:39:09;15.30;99.90
18998;DHT22;9632;51.018;4.284;2022-10-16T03:41:35;15.30;99.90
18998;DHT22;9632;51.018;4.284;2022-10-16T03:44:01;15.30;99.90
18998;DHT22;9632;51.018;4.284;2022-10-16T03:46:26;15.30;99.90
18998;DHT22;9632;51.018;4.284;2022-10-16T03:48:52;15.30;99.90
18998;DHT22;9632;51.018;4.284;2022-10-16T03:51:18;15.30;99.90
18998;DHT22;9632;51.018;4.284;2022-10-16T03:53:43;15.30;99.90
18998;DHT22;9632;51.018;4.284;2022-10-16T03:56:09;15.30;99.90
18998;DHT22;9632;51.018;4.284;2022-10-16T03:58:34;15.30;99.90
18998;DHT22;9632;51.018;4.284;2022-10-16T04:01:00;15.30;99.90
18998;DHT22;9632;51.018;4.284;2022-10-16T04:03:26;15.30;99.90
18998;DHT22;9632;51.018;4.284;2022-10-16T04:05:51;15.30;99.90
18998;DHT22;9632;51.018;4.284;2022-10-16T04:08:17;15.20;99.90
18998;DHT22;9632;51.018;4.284;2022-10-16T04:10:43;15.20;99.90
18998;DHT22;9632;51.018;4.284;2022-10-16T04:13:09;15.30;99.90
18998;DHT22;9632;51.018;4.284;2022-10-16T04:15:35;15.30;99.90
18998;DHT22;9632;51.018;4.284;2022-10-16T04:18:01;15.30;99.90
18998;DHT22;9632;51.018;4.284;2022-10-16T04:20:26;15.30;99.90
18998;DHT22;9632;51.018;4.284;2022-10-16T04:22:52;15.30;99.90
18998;DHT22;9632;51.018;4.284;2022-10-16T04:25:18;15.30;99.90
18998;DHT22;9632;51.018;4.284;2022-10-16T04:27:44;15.30;99.90
18998;DHT22;9632;51.018;4.284;2022-10-16T04:30:10;15.40;99.90
18998;DHT22;9632;51.018;4.284;2022-10-16T04:32:35;15.30;99.90
18998;DHT22;9632;51.018;4.284;2022-10-16T04:35:01;15.40;99.90
18998;DHT22;9632;51.018;4.284;2022-10-16T04:37:27;15.30;99.90
18998;DHT22;9632;51.018;4.284;2022-10-16T04:39:53;15.40;99.90
18998;DHT22;9632;51.018;4.284;2022-10-16T04:42:20;15.30;99.90
18998;DHT22;9632;51.018;4.284;2022-10-16T04:44:45;15.30;99.90
18998;DHT22;9632;51.018;4.284;2022-10-16T04:47:11;15.30;99.90
18998;DHT22;9632;51.018;4.284;2022-10-16T04:49:37;15.20;99.90
18998;DHT22;9632;51.018;4.284;2022-10-16T04:52:03;15.30;99.90
18998;DHT22;9632;51.018;4.284;2022-10-16T04:54:29;15.20;99.90
18998;DHT22;9632;51.018;4.284;2022-10-16T04:56:54;15.20;99.90
18998;DHT22;9632;51.018;4.284;2022-10-16T04:59:20;15.20;99.90
18998;DHT22;9632;51.018;4.284;2022-10-16T05:01:46;15.10;99.90
18998;DHT22;9632;51.018;4.284;2022-10-16T05:04:12;15.10;99.90
18998;DHT22;9632;51.018;4.284;2022-10-16T05:06:38;15.10;99.90
18998;DHT22;9632;51.018;4.284;2022-10-16T05:09:04;15.10;99.90
18998;DHT22;9632;51.018;4.284;2022-10-16T05:11:31;15.00;99.90
18998;DHT22;9632;51.018;4.284;2022-10-16T05:13:57;15.10;99.90
18998;DHT22;9632;51.018;4.284;2022-10-16T05:16:22;15.00;99.90
18998;DHT22;9632;51.018;4.284;2022-10-16T05:18:48;15.10;99.90
18998;DHT22;9632;51.018;4.284;2022-10-16T05:21:14;15.10;99.90
18998;DHT22;9632;51.018;4.284;2022-10-16T05:23:40;15.10;99.90
18998;DHT22;9632;51.018;4.284;2022-10-16T05:26:05;15.10;99.90
18998;DHT22;9632;51.018;4.284;2022-10-16T05:28:31;15.10;99.90
18998;DHT22;9632;51.018;4.284;2022-10-16T05:30:57;15.10;99.90
18998;DHT22;9632;51.018;4.284;2022-10-16T05:33:24;15.00;99.90
18998;DHT22;9632;51.018;4.284;2022-10-16T05:35:51;14.90;99.90
18998;DHT22;9632;51.018;4.284;2022-10-16T05:38:17;14.90;99.90
18998;DHT22;9632;51.018;4.284;2022-10-16T05:40:44;14.90;99.90
18998;DHT22;9632;51.018;4.284;2022-10-16T05:43:15;14.90;99.90
18998;DHT22;9632;51.018;4.284;2022-10-16T05:45:41;14.90;99.90
18998;DHT22;9632;51.018;4.284;2022-10-16T05:48:06;15.00;99.90
18998;DHT22;9632;51.018;4.284;2022-10-16T05:50:32;15.00;99.90
18998;DHT22;9632;51.018;4.284;2022-10-16T05:52:58;15.00;99.90
18998;DHT22;9632;51.018;4.284;2022-10-16T05:55:23;15.00;99.90
18998;DHT22;9632;51.018;4.284;2022-10-16T05:57:49;15.00;99.90
18998;DHT22;9632;51.018;4.284;2022-10-16T06:00:14;14.90;99.90
18998;DHT22;9632;51.018;4.284;2022-10-16T06:02:40;14.90;99.90
18998;DHT22;9632;51.018;4.284;2022-10-16T06:05:06;14.90;99.90
18998;DHT22;9632;51.018;4.284;2022-10-16T06:07:34;15.00;99.90
18998;DHT22;9632;51.018;4.284;2022-10-16T06:10:01;15.10;99.90
18998;DHT22;9632;51.018;4.284;2022-10-16T06:12:27;15.10;99.90
18998;DHT22;9632;51.018;4.284;2022-10-16T06:14:53;15.10;99.90
18998;DHT22;9632;51.018;4.284;2022-10-16T06:17:18;15.10;99.90
18998;DHT22;9632;51.018;4.284;2022-10-16T06:19:44;15.10;99.90
18998;DHT22;9632;51.018;4.284;2022-10-16T06:22:09;15.10;99.90
18998;DHT22;9632;51.018;4.284;2022-10-16T06:24:35;15.10;99.90
18998;DHT22;9632;51.018;4.284;2022-10-16T06:27:01;15.00;99.90
18998;DHT22;9632;51.018;4.284;2022-10-16T06:29:28;15.10;99.90
18998;DHT22;9632;51.018;4.284;2022-10-16T06:31:53;15.10;99.90
18998;DHT22;9632;51.018;4.284;2022-10-16T06:34:19;15.00;99.90
18998;DHT22;9632;51.018;4.284;2022-10-16T06:36:44;15.00;99.90
18998;DHT22;9632;51.018;4.284;2022-10-16T06:39:10;15.10;99.90
18998;DHT22;9632;51.018;4.284;2022-10-16T06:41:36;15.10;99.90
18998;DHT22;9632;51.018;4.284;2022-10-16T06:44:05;15.10;99.90
18998;DHT22;9632;51.018;4.284;2022-10-16T06:46:31;15.10;99.90
18998;DHT22;9632;51.018;4.284;2022-10-16T06:48:56;15.10;99.90
18998;DHT22;9632;51.018;4.284;2022-10-16T06:51:24;15.20;99.90
18998;DHT22;9632;51.018;4.284;2022-10-16T06:53:52;15.20;99.90
18998;DHT22;9632;51.018;4.284;2022-10-16T06:56:20;15.30;99.90
18998;DHT22;9632;51.018;4.284;2022-10-16T06:58:46;15.30;99.90
18998;DHT22;9632;51.018;4.284;2022-10-16T07:01:13;15.30;99.90
18998;DHT22;9632;51.018;4.284;2022-10-16T07:03:41;15.30;99.90
18998;DHT22;9632;51.018;4.284;2022-10-16T07:06:08;15.40;99.90
18998;DHT22;9632;51.018;4.284;2022-10-16T07:08:39;15.40;99.90
18998;DHT22;9632;51.018;4.284;2022-10-16T07:11:07;15.50;99.90
18998;DHT22;9632;51.018;4.284;2022-10-16T07:13:37;15.50;99.90
18998;DHT22;9632;51.018;4.284;2022-10-16T07:16:15;15.50;99.90
18998;DHT22;9632;51.018;4.284;2022-10-16T07:18:42;15.50;99.90
18998;DHT22;9632;51.018;4.284;2022-10-16T07:21:12;15.60;99.90
18998;DHT22;9632;51.018;4.284;2022-10-16T07:23:38;15.60;99.90
18998;DHT22;9632;51.018;4.284;2022-10-16T07:26:05;15.60;99.90
18998;DHT22;9632;51.018;4.284;2022-10-16T07:28:31;15.70;99.90
18998;DHT22;9632;51.018;4.284;2022-10-16T07:31:09;15.80;99.90
18998;DHT22;9632;51.018;4.284;2022-10-16T07:33:36;15.80;99.90
18998;DHT22;9632;51.018;4.284;2022-10-16T07:36:02;15.80;99.90
18998;DHT22;9632;51.018;4.284;2022-10-16T07:38:28;15.90;99.90
18998;DHT22;9632;51.018;4.284;2022-10-16T07:40:58;15.90;99.90
18998;DHT22;9632;51.018;4.284;2022-10-16T07:43:24;16.00;99.90
18998;DHT22;9632;51.018;4.284;2022-10-16T07:45:50;16.10;99.90
18998;DHT22;9632;51.018;4.284;2022-10-16T07:48:17;16.10;99.90
18998;DHT22;9632;51.018;4.284;2022-10-16T07:50:43;16.20;99.90
18998;DHT22;9632;51.018;4.284;2022-10-16T07:53:10;16.30;99.90
18998;DHT22;9632;51.018;4.284;2022-10-16T07:55:36;16.30;99.90
18998;DHT22;9632;51.018;4.284;2022-10-16T07:58:01;16.40;99.90
18998;DHT22;9632;51.018;4.284;2022-10-16T08:00:27;16.50;99.90
18998;DHT22;9632;51.018;4.284;2022-10-16T08:02:53;16.50;99.90
18998;DHT22;9632;51.018;4.284;2022-10-16T08:05:18;16.50;99.90
18998;DHT22;9632;51.018;4.284;2022-10-16T08:07:49;16.50;99.90
18998;DHT22;9632;51.018;4.284;2022-10-16T08:10:17;16.60;99.90
18998;DHT22;9632;51.018;4.284;2022-10-16T08:12:43;16.60;99.90
18998;DHT22;9632;51.018;4.284;2022-10-16T08:15:09;16.70;99.90
18998;DHT22;9632;51.018;4.284;2022-10-16T08:17:35;16.80;99.90
18998;DHT22;9632;51.018;4.284;2022-10-16T08:20:01;16.90;99.90
18998;DHT22;9632;51.018;4.284;2022-10-16T08:22:27;17.00;99.90
18998;DHT22;9632;51.018;4.284;2022-10-16T08:24:52;17.10;99.90
18998;DHT22;9632;51.018;4.284;2022-10-16T08:27:18;17.20;99.90
18998;DHT22;9632;51.018;4.284;2022-10-16T08:29:44;17.20;99.90
18998;DHT22;9632;51.018;4.284;2022-10-16T08:32:09;17.30;99.90
18998;DHT22;9632;51.018;4.284;2022-10-16T08:34:35;17.40;99.90
18998;DHT22;9632;51.018;4.284;2022-10-16T08:37:00;17.50;99.90
18998;DHT22;9632;51.018;4.284;2022-10-16T08:39:26;17.60;99.90
18998;DHT22;9632;51.018;4.284;2022-10-16T08:42:15;17.70;99.90
18998;DHT22;9632;51.018;4.284;2022-10-16T08:47:49;17.80;99.90
18998;DHT22;9632;51.018;4.284;2022-10-16T08:50:26;17.90;99.90
18998;DHT22;9632;51.018;4.284;2022-10-16T08:52:54;18.00;99.90
18998;DHT22;9632;51.018;4.284;2022-10-16T08:55:42;18.10;99.90
18998;DHT22;9632;51.018;4.284;2022-10-16T08:58:16;18.20;99.90
18998;DHT22;9632;51.018;4.284;2022-10-16T09:00:45;18.30;99.90
18998;DHT22;9632;51.018;4.284;2022-10-16T09:11:41;18.50;99.90
18998;DHT22;9632;51.018;4.284;2022-10-16T09:17:37;18.60;99.90
18998;DHT22;9632;51.018;4.284;2022-10-16T09:25:43;18.80;99.90
18998;DHT22;9632;51.018;4.284;2022-10-16T09:28:10;18.80;99.90
18998;DHT22;9632;51.018;4.284;2022-10-16T09:30:36;18.90;99.90
18998;DHT22;9632;51.018;4.284;2022-10-16T09:33:03;19.00;99.90
18998;DHT22;9632;51.018;4.284;2022-10-16T09:35:38;19.10;99.90
18998;DHT22;9632;51.018;4.284;2022-10-16T09:38:05;19.20;99.90
18998;DHT22;9632;51.018;4.284;2022-10-16T09:40:36;19.30;99.90
18998;DHT22;9632;51.018;4.284;2022-10-16T09:45:57;19.30;99.90
18998;DHT22;9632;51.018;4.284;2022-10-16T09:48:27;19.30;99.90
18998;DHT22;9632;51.018;4.284;2022-10-16T09:50:59;19.40;99.90
18998;DHT22;9632;51.018;4.284;2022-10-16T09:53:37;19.50;99.90
18998;DHT22;9632;51.018;4.284;2022-10-16T09:56:03;19.60;99.90
18998;DHT22;9632;51.018;4.284;2022-10-16T09:58:32;19.70;99.90
18998;DHT22;9632;51.018;4.284;2022-10-16T10:00:58;19.70;99.90
18998;DHT22;9632;51.018;4.284;2022-10-16T10:03:44;19.80;99.90
18998;DHT22;9632;51.018;4.284;2022-10-16T10:06:27;19.90;99.90
18998;DHT22;9632;51.018;4.284;2022-10-16T10:22:30;20.00;99.90
18998;DHT22;9632;51.018;4.284;2022-10-16T10:27:32;20.10;99.90
18998;DHT22;9632;51.018;4.284;2022-10-16T10:30:15;20.20;99.90
18998;DHT22;9632;51.018;4.284;2022-10-16T10:35:35;20.10;99.90
18998;DHT22;9632;51.018;4.284;2022-10-16T10:40:56;20.10;99.90
18998;DHT22;9632;51.018;4.284;2022-10-16T10:46:17;20.10;99.90
18998;DHT22;9632;51.018;4.284;2022-10-16T10:57:25;20.30;99.90
18998;DHT22;9632;51.018;4.284;2022-10-16T11:00:24;20.30;99.90
18998;DHT22;9632;51.018;4.284;2022-10-16T11:03:00;20.40;99.90
18998;DHT22;9632;51.018;4.284;2022-10-16T11:05:54;20.30;99.90
18998;DHT22;9632;51.018;4.284;2022-10-16T11:09:10;20.30;99.90
18998;DHT22;9632;51.018;4.284;2022-10-16T11:12:00;20.30;99.90
18998;DHT22;9632;51.018;4.284;2022-10-16T11:14:40;20.40;99.90
18998;DHT22;9632;51.018;4.284;2022-10-16T11:17:18;20.50;99.90
18998;DHT22;9632;51.018;4.284;2022-10-16T11:19:48;20.50;99.90
18998;DHT22;9632;51.018;4.284;2022-10-16T11:25:26;20.70;99.90
18998;DHT22;9632;51.018;4.284;2022-10-16T11:28:31;20.70;99.90
18998;DHT22;9632;51.018;4.284;2022-10-16T11:33:57;20.80;99.90
18998;DHT22;9632;51.018;4.284;2022-10-16T11:36:47;20.70;99.90
18998;DHT22;9632;51.018;4.284;2022-10-16T11:39:28;20.60;99.90
18998;DHT22;9632;51.018;4.284;2022-10-16T11:45:45;20.50;99.90
18998;DHT22;9632;51.018;4.284;2022-10-16T11:48:27;20.60;99.90
18998;DHT22;9632;51.018;4.284;2022-10-16T11:51:14;20.60;99.90
18998;DHT22;9632;51.018;4.284;2022-10-16T11:53:49;20.70;99.90
18998;DHT22;9632;51.018;4.284;2022-10-16T11:56:17;20.80;99.90
18998;DHT22;9632;51.018;4.284;2022-10-16T11:58:58;20.80;99.90
18998;DHT22;9632;51.018;4.284;2022-10-16T12:01:46;20.80;99.90
18998;DHT22;9632;51.018;4.284;2022-10-16T12:07:13;20.70;99.90
18998;DHT22;9632;51.018;4.284;2022-10-16T12:09:41;20.70;99.90
18998;DHT22;9632;51.018;4.284;2022-10-16T12:12:26;20.70;99.90
18998;DHT22;9632;51.018;4.284;2022-10-16T12:15:01;20.70;99.90
18998;DHT22;9632;51.018;4.284;2022-10-16T12:17:35;20.80;99.90
18998;DHT22;9632;51.018;4.284;2022-10-16T12:20:28;20.80;99.90
18998;DHT22;9632;51.018;4.284;2022-10-16T12:28:20;20.70;99.90
18998;DHT22;9632;51.018;4.284;2022-10-16T12:30:58;20.60;99.90
18998;DHT22;9632;51.018;4.284;2022-10-16T12:33:30;20.50;99.90
18998;DHT22;9632;51.018;4.284;2022-10-16T12:35:57;20.40;99.90
18998;DHT22;9632;51.018;4.284;2022-10-16T12:38:36;20.30;99.90
18998;DHT22;9632;51.018;4.284;2022-10-16T12:41:07;20.30;99.90
18998;DHT22;9632;51.018;4.284;2022-10-16T12:46:38;20.30;99.90
18998;DHT22;9632;51.018;4.284;2022-10-16T12:51:40;20.40;99.90
18998;DHT22;9632;51.018;4.284;2022-10-16T12:54:14;20.50;99.90
18998;DHT22;9632;51.018;4.284;2022-10-16T13:10:51;20.40;99.90
18998;DHT22;9632;51.018;4.284;2022-10-16T13:27:37;20.30;99.90
18998;DHT22;9632;51.018;4.284;2022-10-16T13:32:39;20.40;99.90
18998;DHT22;9632;51.018;4.284;2022-10-16T13:35:18;20.40;99.90
18998;DHT22;9632;51.018;4.284;2022-10-16T13:37:44;20.40;99.90
18998;DHT22;9632;51.018;4.284;2022-10-16T13:40:28;20.40;99.90
18998;DHT22;9632;51.018;4.284;2022-10-16T13:42:54;20.40;99.90
18998;DHT22;9632;51.018;4.284;2022-10-16T13:45:21;20.50;99.90
18998;DHT22;9632;51.018;4.284;2022-10-16T13:47:47;20.50;99.90
18998;DHT22;9632;51.018;4.284;2022-10-16T13:50:16;20.50;99.90
18998;DHT22;9632;51.018;4.284;2022-10-16T13:52:42;20.50;99.90
18998;DHT22;9632;51.018;4.284;2022-10-16T13:55:16;20.50;99.90
18998;DHT22;9632;51.018;4.284;2022-10-16T13:57:43;20.50;99.90
18998;DHT22;9632;51.018;4.284;2022-10-16T14:00:26;20.50;99.90
18998;DHT22;9632;51.018;4.284;2022-10-16T14:03:07;20.50;99.90
18998;DHT22;9632;51.018;4.284;2022-10-16T14:05:57;20.50;99.90
18998;DHT22;9632;51.018;4.284;2022-10-16T14:08:25;20.50;99.90
18998;DHT22;9632;51.018;4.284;2022-10-16T14:10:55;20.60;99.90
18998;DHT22;9632;51.018;4.284;2022-10-16T14:15:56;20.50;99.90
18998;DHT22;9632;51.018;4.284;2022-10-16T14:18:25;20.50;99.90
18998;DHT22;9632;51.018;4.284;2022-10-16T14:20:52;20.50;99.90
18998;DHT22;9632;51.018;4.284;2022-10-16T14:23:50;20.40;99.90
18998;DHT22;9632;51.018;4.284;2022-10-16T14:26:19;20.20;99.90
18998;DHT22;9632;51.018;4.284;2022-10-16T14:28:47;20.20;99.90
18998;DHT22;9632;51.018;4.284;2022-10-16T14:31:31;20.20;99.90
18998;DHT22;9632;51.018;4.284;2022-10-16T14:33:57;20.10;99.90
18998;DHT22;9632;51.018;4.284;2022-10-16T14:36:24;20.00;99.90
18998;DHT22;9632;51.018;4.284;2022-10-16T14:39:05;20.10;99.90
18998;DHT22;9632;51.018;4.284;2022-10-16T14:41:40;20.00;99.90
18998;DHT22;9632;51.018;4.284;2022-10-16T14:44:09;19.80;99.90
18998;DHT22;9632;51.018;4.284;2022-10-16T14:46:38;19.80;99.90
18998;DHT22;9632;51.018;4.284;2022-10-16T14:51:37;20.00;99.90
18998;DHT22;9632;51.018;4.284;2022-10-16T14:54:03;20.00;99.90
18998;DHT22;9632;51.018;4.284;2022-10-16T14:56:44;20.10;99.90
18998;DHT22;9632;51.018;4.284;2022-10-16T15:01:46;20.00;99.90
18998;DHT22;9632;51.018;4.284;2022-10-16T15:04:12;19.80;99.90
18998;DHT22;9632;51.018;4.284;2022-10-16T15:06:39;19.70;99.90
18998;DHT22;9632;51.018;4.284;2022-10-16T15:09:04;19.70;99.90
18998;DHT22;9632;51.018;4.284;2022-10-16T15:11:32;19.80;99.90
18998;DHT22;9632;51.018;4.284;2022-10-16T15:13:58;19.90;99.90
18998;DHT22;9632;51.018;4.284;2022-10-16T15:16:23;20.00;99.90
18998;DHT22;9632;51.018;4.284;2022-10-16T15:18:49;20.00;99.90
18998;DHT22;9632;51.018;4.284;2022-10-16T15:21:25;20.00;99.90
18998;DHT22;9632;51.018;4.284;2022-10-16T15:23:51;20.10;99.90
18998;DHT22;9632;51.018;4.284;2022-10-16T15:26:17;20.10;99.90
18998;DHT22;9632;51.018;4.284;2022-10-16T15:28:43;20.20;99.90
18998;DHT22;9632;51.018;4.284;2022-10-16T15:31:09;20.10;99.90
18998;DHT22;9632;51.018;4.284;2022-10-16T15:33:34;20.00;99.90
18998;DHT22;9632;51.018;4.284;2022-10-16T15:36:01;19.90;99.90
18998;DHT22;9632;51.018;4.284;2022-10-16T15:38:28;19.80;99.90
18998;DHT22;9632;51.018;4.284;2022-10-16T15:40:54;19.80;99.90
18998;DHT22;9632;51.018;4.284;2022-10-16T15:43:20;19.80;99.90
18998;DHT22;9632;51.018;4.284;2022-10-16T15:46:05;19.80;99.90
18998;DHT22;9632;51.018;4.284;2022-10-16T15:48:32;19.90;99.90
18998;DHT22;9632;51.018;4.284;2022-10-16T15:50:59;19.90;99.90
18998;DHT22;9632;51.018;4.284;2022-10-16T15:53:24;20.00;99.90
18998;DHT22;9632;51.018;4.284;2022-10-16T15:55:50;20.00;99.90
18998;DHT22;9632;51.018;4.284;2022-10-16T15:58:16;20.00;99.90
18998;DHT22;9632;51.018;4.284;2022-10-16T16:00:41;19.90;99.90
18998;DHT22;9632;51.018;4.284;2022-10-16T16:03:08;20.00;99.90
18998;DHT22;9632;51.018;4.284;2022-10-16T16:05:36;19.90;99.90
18998;DHT22;9632;51.018;4.284;2022-10-16T16:08:02;19.90;99.90
18998;DHT22;9632;51.018;4.284;2022-10-16T16:10:28;20.00;99.90
18998;DHT22;9632;51.018;4.284;2022-10-16T16:12:53;19.90;99.90
18998;DHT22;9632;51.018;4.284;2022-10-16T16:15:21;19.90;99.90
18998;DHT22;9632;51.018;4.284;2022-10-16T16:17:47;19.80;99.90
18998;DHT22;9632;51.018;4.284;2022-10-16T16:20:13;19.90;99.90
18998;DHT22;9632;51.018;4.284;2022-10-16T16:22:39;19.90;99.90
18998;DHT22;9632;51.018;4.284;2022-10-16T16:25:05;19.90;99.90
18998;DHT22;9632;51.018;4.284;2022-10-16T16:27:30;19.90;99.90
18998;DHT22;9632;51.018;4.284;2022-10-16T16:29:59;19.90;99.90
18998;DHT22;9632;51.018;4.284;2022-10-16T16:32:25;19.80;99.90
18998;DHT22;9632;51.018;4.284;2022-10-16T16:34:51;19.70;99.90
18998;DHT22;9632;51.018;4.284;2022-10-16T16:37:16;19.70;99.90
18998;DHT22;9632;51.018;4.284;2022-10-16T16:39:42;19.70;99.90
18998;DHT22;9632;51.018;4.284;2022-10-16T16:42:08;19.70;99.90
18998;DHT22;9632;51.018;4.284;2022-10-16T16:44:35;19.70;99.90
18998;DHT22;9632;51.018;4.284;2022-10-16T16:47:02;19.60;99.90
18998;DHT22;9632;51.018;4.284;2022-10-16T16:49:28;19.60;99.90
18998;DHT22;9632;51.018;4.284;2022-10-16T16:51:53;19.50;99.90
18998;DHT22;9632;51.018;4.284;2022-10-16T16:54:19;19.50;99.90
18998;DHT22;9632;51.018;4.284;2022-10-16T16:56:45;19.60;99.90
18998;DHT22;9632;51.018;4.284;2022-10-16T16:59:17;19.50;99.90
18998;DHT22;9632;51.018;4.284;2022-10-16T17:01:43;19.50;99.90
18998;DHT22;9632;51.018;4.284;2022-10-16T17:04:09;19.50;99.90
18998;DHT22;9632;51.018;4.284;2022-10-16T17:06:36;19.40;99.90
18998;DHT22;9632;51.018;4.284;2022-10-16T17:09:04;19.40;99.90
18998;DHT22;9632;51.018;4.284;2022-10-16T17:11:30;19.40;99.90
18998;DHT22;9632;51.018;4.284;2022-10-16T17:13:57;19.30;99.90
18998;DHT22;9632;51.018;4.284;2022-10-16T17:16:25;19.40;99.90
18998;DHT22;9632;51.018;4.284;2022-10-16T17:18:52;19.30;99.90
18998;DHT22;9632;51.018;4.284;2022-10-16T17:21:18;19.30;99.90
18998;DHT22;9632;51.018;4.284;2022-10-16T17:23:44;19.30;99.90
18998;DHT22;9632;51.018;4.284;2022-10-16T17:26:15;19.30;99.90
18998;DHT22;9632;51.018;4.284;2022-10-16T17:28:42;19.20;99.90
18998;DHT22;9632;51.018;4.284;2022-10-16T17:31:14;19.20;99.90
18998;DHT22;9632;51.018;4.284;2022-10-16T17:33:41;19.20;99.90
18998;DHT22;9632;51.018;4.284;2022-10-16T17:36:07;19.20;99.90
18998;DHT22;9632;51.018;4.284;2022-10-16T17:38:33;19.20;99.90
18998;DHT22;9632;51.018;4.284;2022-10-16T17:41:12;19.10;99.90
18998;DHT22;9632;51.018;4.284;2022-10-16T17:43:38;19.10;99.90
18998;DHT22;9632;51.018;4.284;2022-10-16T17:46:05;19.10;99.90
18998;DHT22;9632;51.018;4.284;2022-10-16T17:48:31;19.10;99.90
18998;DHT22;9632;51.018;4.284;2022-10-16T17:50:57;19.10;99.90
18998;DHT22;9632;51.018;4.284;2022-10-16T17:53:22;19.00;99.90
18998;DHT22;9632;51.018;4.284;2022-10-16T17:55:48;18.90;99.90
18998;DHT22;9632;51.018;4.284;2022-10-16T17:58:13;18.90;99.90
18998;DHT22;9632;51.018;4.284;2022-10-16T18:00:39;18.90;99.90
18998;DHT22;9632;51.018;4.284;2022-10-16T18:03:04;18.90;99.90
18998;DHT22;9632;51.018;4.284;2022-10-16T18:05:30;18.90;99.90
18998;DHT22;9632;51.018;4.284;2022-10-16T18:07:56;18.90;99.90
18998;DHT22;9632;51.018;4.284;2022-10-16T18:10:22;18.80;99.90
18998;DHT22;9632;51.018;4.284;2022-10-16T18:12:48;18.80;99.90
18998;DHT22;9632;51.018;4.284;2022-10-16T18:15:13;18.80;99.90